EDDS

Stuttgart Airport

Airport
ICAO code
EDDS
IATA Code
STR
Summary
ICAO Region
EUR
ICAO Territory
Location

Echterdingen, Stuttgart,

Serving
Stuttgart
Elevation
1276 ft
Coordinates
48° 41' 17" N , 9° 12' 37" E
KCC
Metar
Observation
EDDS 042120Z AUTO 30003KT 9999 FEW041 M00/M02 Q1036 NOSIG
Station
Stuttgart-Echterdingen
Date/Time
2023-02-04 21:20:00
Wind direction
300°
Wind speed
03 kts
Lowest cloud amount
few clouds
Temperature
-0°C
Dew point
-2°C
Humidity
86%
QNH
1036 hPa
Weather condition
n/a

Description

International airport serving Stuttgart, Germany.

Climatology

Temperate Marine climate/Oceanic climate (Köppen climate classification Cfb) - Moderately cool summer and comparatively warm winter.

Runways

Designator Length Width Surface Rops
7/25 3345 45 CON Yes/Yes

SKYbrary Partners:

Safety knowledge contributed by: